Time;durP1;ratioP1;P1;durP2;ratioP2;P2;SDS_P1;SDS_P2;PMS_P1;PMS_P2;Temp;Humidity;BMP_temperature;BMP_pressure;BME280_temperature;BME280_humidity;BME280_pressure;Samples;Min_cycle;Max_cycle;Signal;HPM_P1;HPM_P2
2021/04/20 00:00:15;;;;;;;;;16.25;13.00;;;;;;;;3568880;39;114227;-78
2021/04/20 00:02:41;;;;;;;;;13.00;12.75;;;;;;;;3569733;39;111919;-77
2021/04/20 00:05:09;;;;;;;;;14.75;14.75;;;;;;;;3569020;39;113403;-76
2021/04/20 00:07:35;;;;;;;;;13.75;13.00;;;;;;;;3569728;39;113841;-78
2021/04/20 00:10:01;;;;;;;;;14.50;12.25;;;;;;;;3569287;39;112948;-78
2021/04/20 00:12:27;;;;;;;;;12.75;11.50;;;;;;;;3568232;39;114231;-77
2021/04/20 00:14:53;;;;;;;;;12.50;9.50;;;;;;;;3569870;39;112236;-77
2021/04/20 00:17:20;;;;;;;;;12.25;9.50;;;;;;;;3569303;39;113276;-78
2021/04/20 00:19:46;;;;;;;;;11.50;10.00;;;;;;;;3569093;39;114335;-78
2021/04/20 00:22:12;;;;;;;;;15.50;9.75;;;;;;;;3569457;39;111883;-78
2021/04/20 00:24:38;;;;;;;;;12.75;10.00;;;;;;;;3569004;39;113474;-78
2021/04/20 00:27:04;;;;;;;;;11.50;10.00;;;;;;;;3569352;39;113930;-78
2021/04/20 00:29:30;;;;;;;;;12.75;12.25;;;;;;;;3570872;39;111886;-78
2021/04/20 00:31:56;;;;;;;;;16.00;12.33;;;;;;;;3568149;39;114198;-79
2021/04/20 00:34:23;;;;;;;;;17.75;12.50;;;;;;;;3569962;39;112023;-79
2021/04/20 00:36:49;;;;;;;;;17.00;14.33;;;;;;;;3565550;39;113455;-78
2021/04/20 00:39:15;;;;;;;;;17.00;14.67;;;;;;;;3568903;39;114278;-77
2021/04/20 00:41:41;;;;;;;;;16.33;13.33;;;;;;;;3569447;39;112565;-78
2021/04/20 00:44:07;;;;;;;;;14.33;14.33;;;;;;;;3568881;39;113309;-78
2021/04/20 00:46:33;;;;;;;;;19.00;16.00;;;;;;;;3569454;39;113980;-77
2021/04/20 00:48:59;;;;;;;;;16.67;13.67;;;;;;;;3568356;39;112163;-76
2021/04/20 00:51:26;;;;;;;;;17.67;13.67;;;;;;;;3570743;39;113799;-77
2021/04/20 00:53:52;;;;;;;;;15.00;13.00;;;;;;;;3569821;39;111852;-77
2021/04/20 00:56:18;;;;;;;;;15.00;12.67;;;;;;;;3568903;39;112984;-77
2021/04/20 00:58:45;;;;;;;;;14.33;12.00;;;;;;;;3569090;39;113852;-78
2021/04/20 01:01:11;;;;;;;;;12.00;11.00;;;;;;;;3569358;39;112683;-78
2021/04/20 01:03:37;;;;;;;;;14.00;12.00;;;;;;;;3568797;39;113643;-78
2021/04/20 01:06:03;;;;;;;;;17.00;12.00;;;;;;;;3569369;39;114148;-78
2021/04/20 01:08:31;;;;;;;;;12.00;10.33;;;;;;;;3568461;39;111848;-78
2021/04/20 01:10:58;;;;;;;;;15.67;13.00;;;;;;;;3568318;39;113421;-76
2021/04/20 01:13:24;;;;;;;;;17.00;13.00;;;;;;;;3572328;39;113952;-78
2021/04/20 01:15:52;;;;;;;;;15.00;11.33;;;;;;;;3568648;39;113418;-76
2021/04/20 01:18:19;;;;;;;;;15.00;11.67;;;;;;;;3569059;39;113936;-76
2021/04/20 01:20:46;;;;;;;;;9.67;9.67;;;;;;;;3568960;39;111933;-77
2021/04/20 01:23:13;;;;;;;;;17.33;13.67;;;;;;;;3569027;39;113804;-78
2021/04/20 01:25:40;;;;;;;;;16.33;12.33;;;;;;;;3568949;39;114186;-77
2021/04/20 01:28:06;;;;;;;;;13.00;10.33;;;;;;;;3568421;39;111785;-77
2021/04/20 01:30:34;;;;;;;;;11.33;9.00;;;;;;;;3567646;39;113211;-78
2021/04/20 01:33:02;;;;;;;;;11.33;9.67;;;;;;;;3569418;39;113907;-78
2021/04/20 01:35:28;;;;;;;;;11.00;11.00;;;;;;;;3570922;39;112006;-78
2021/04/20 01:37:54;;;;;;;;;16.00;13.67;;;;;;;;3569181;39;113860;-78
2021/04/20 01:40:20;;;;;;;;;11.67;9.67;;;;;;;;3562714;39;111943;-78
2021/04/20 01:42:48;;;;;;;;;13.00;9.67;;;;;;;;3568467;39;112256;-78
2021/04/20 01:45:14;;;;;;;;;13.67;10.33;;;;;;;;3568355;39;114069;-77
2021/04/20 01:47:41;;;;;;;;;11.00;11.00;;;;;;;;3566132;39;112130;-78
2021/04/20 01:50:07;;;;;;;;;12.00;10.33;;;;;;;;3568279;39;113171;-78
2021/04/20 01:52:34;;;;;;;;;11.00;11.00;;;;;;;;3569156;39;114078;-78
2021/04/20 01:55:00;;;;;;;;;9.67;7.33;;;;;;;;3567984;39;112281;-76
2021/04/20 01:57:27;;;;;;;;;12.00;8.33;;;;;;;;3568490;39;112524;-75
2021/04/20 01:59:54;;;;;;;;;11.67;9.00;;;;;;;;3567905;39;111938;-76
2021/04/20 02:02:20;;;;;;;;;10.67;9.33;;;;;;;;3569447;39;113322;-75
2021/04/20 02:04:46;;;;;;;;;16.67;12.67;;;;;;;;3568004;39;114113;-75
2021/04/20 02:07:12;;;;;;;;;12.00;11.00;;;;;;;;3568757;39;111759;-76
2021/04/20 02:09:39;;;;;;;;;12.00;10.33;;;;;;;;3568960;39;113527;-76
2021/04/20 02:12:05;;;;;;;;;8.00;7.00;;;;;;;;3567637;39;114131;-75
2021/04/20 02:14:34;;;;;;;;;11.00;11.00;;;;;;;;3569635;39;112285;-74
2021/04/20 02:17:02;;;;;;;;;10.67;8.33;;;;;;;;3567783;39;113373;-77
2021/04/20 02:19:29;;;;;;;;;12.00;8.67;;;;;;;;3571436;39;111882;-74
2021/04/20 02:21:56;;;;;;;;;11.67;11.67;;;;;;;;3567577;39;113506;-73
2021/04/20 02:24:22;;;;;;;;;13.67;9.33;;;;;;;;3567330;39;114176;-73
2021/04/20 02:26:48;;;;;;;;;14.00;14.00;;;;;;;;3568908;39;112445;-74
2021/04/20 02:29:14;;;;;;;;;16.00;14.33;;;;;;;;3569396;39;114182;-73
2021/04/20 02:31:41;;;;;;;;;17.00;13.33;;;;;;;;3567780;39;114392;-74
2021/04/20 02:34:08;;;;;;;;;13.00;12.67;;;;;;;;3568067;39;112273;-75
2021/04/20 02:36:35;;;;;;;;;13.33;12.33;;;;;;;;3566417;39;113283;-76
2021/04/20 02:39:01;;;;;;;;;15.33;13.00;;;;;;;;3568897;39;113977;-77
2021/04/20 02:41:28;;;;;;;;;14.67;12.00;;;;;;;;3568656;39;113467;-76
2021/04/20 02:43:54;;;;;;;;;14.67;14.00;;;;;;;;3566340;39;114271;-76
2021/04/20 02:46:20;;;;;;;;;13.00;12.00;;;;;;;;3568108;39;112197;-75
2021/04/20 02:48:46;;;;;;;;;17.00;13.00;;;;;;;;3567386;39;113375;-76
2021/04/20 02:51:14;;;;;;;;;15.00;13.67;;;;;;;;3567339;39;114073;-76
2021/04/20 02:53:41;;;;;;;;;15.67;13.00;;;;;;;;3570085;39;111825;-75
2021/04/20 02:56:08;;;;;;;;;12.67;12.67;;;;;;;;3570793;39;113223;-75
2021/04/20 02:58:35;;;;;;;;;13.67;13.67;;;;;;;;3569637;39;113754;-75
2021/04/20 03:01:03;;;;;;;;;16.67;14.33;;;;;;;;3572366;39;111895;-75
2021/04/20 03:03:30;;;;;;;;;13.67;13.67;;;;;;;;3570792;39;113965;-75
2021/04/20 03:05:56;;;;;;;;;13.00;12.00;;;;;;;;3568739;39;111905;-76
2021/04/20 03:08:23;;;;;;;;;16.00;13.00;;;;;;;;3568734;39;113730;-76
2021/04/20 03:10:50;;;;;;;;;17.00;16.00;;;;;;;;3571252;39;113303;-76
2021/04/20 03:13:16;;;;;;;;;18.33;16.00;;;;;;;;3570225;39;111832;-76
2021/04/20 03:15:43;;;;;;;;;17.67;13.00;;;;;;;;3569737;39;113915;-77
2021/04/20 03:18:10;;;;;;;;;15.00;13.67;;;;;;;;3564182;39;113014;-76
2021/04/20 03:20:36;;;;;;;;;15.00;13.00;;;;;;;;3570111;39;111904;-76
2021/04/20 03:23:03;;;;;;;;;17.00;16.00;;;;;;;;3571200;39;113312;-76
2021/04/20 03:25:31;;;;;;;;;12.00;12.00;;;;;;;;3570842;39;111901;-76
2021/04/20 03:27:58;;;;;;;;;16.00;13.67;;;;;;;;3568806;39;113293;-76
2021/04/20 03:30:25;;;;;;;;;18.33;17.00;;;;;;;;3568504;39;114048;-75
2021/04/20 03:33:05;;;;;;;;;18.00;15.67;;;;;;;;3570336;39;112036;-75
2021/04/20 03:35:36;;;;;;;;;21.00;15.00;;;;;;;;3569185;39;113262;-75
2021/04/20 03:38:07;;;;;;;;;17.00;15.33;;;;;;;;3569687;39;114079;-76
2021/04/20 03:40:35;;;;;;;;;16.00;15.00;;;;;;;;3569075;39;111755;-75
2021/04/20 03:43:05;;;;;;;;;17.00;15.00;;;;;;;;3570193;39;113330;-75
2021/04/20 03:45:34;;;;;;;;;17.00;15.00;;;;;;;;3571238;39;114104;-76
2021/04/20 03:48:04;;;;;;;;;17.33;13.00;;;;;;;;3570312;39;113396;-76
2021/04/20 03:50:33;;;;;;;;;19.67;17.00;;;;;;;;3568475;39;113579;-76
2021/04/20 03:53:01;;;;;;;;;21.67;16.00;;;;;;;;3568415;39;111891;-76
2021/04/20 03:55:28;;;;;;;;;20.67;16.67;;;;;;;;3570748;39;113336;-76
2021/04/20 03:57:56;;;;;;;;;24.00;19.00;;;;;;;;3568276;39;113820;-75
2021/04/20 04:00:23;;;;;;;;;18.00;16.33;;;;;;;;3570497;39;111936;-76
2021/04/20 04:02:51;;;;;;;;;20.33;20.33;;;;;;;;3568931;39;113474;-77
2021/04/20 04:05:17;;;;;;;;;25.00;20.00;;;;;;;;3569488;39;114369;-76
2021/04/20 04:07:44;;;;;;;;;23.00;17.33;;;;;;;;3572097;39;111923;-77
2021/04/20 04:10:12;;;;;;;;;19.33;16.00;;;;;;;;3569038;39;113675;-76
2021/04/20 04:12:39;;;;;;;;;18.67;16.00;;;;;;;;3569601;39;111855;-76
2021/04/20 04:15:08;;;;;;;;;16.67;15.67;;;;;;;;3569111;39;113403;-76
2021/04/20 04:17:36;;;;;;;;;19.67;16.67;;;;;;;;3569529;39;113973;-75
2021/04/20 04:20:04;;;;;;;;;18.67;16.33;;;;;;;;3568736;39;111868;-75
2021/04/20 04:22:33;;;;;;;;;21.33;17.67;;;;;;;;3570347;39;113388;-75
2021/04/20 04:25:00;;;;;;;;;18.00;16.00;;;;;;;;3568158;39;113942;-75
2021/04/20 04:27:28;;;;;;;;;19.00;16.00;;;;;;;;3571318;39;111744;-74
2021/04/20 04:29:55;;;;;;;;;19.33;18.33;;;;;;;;3569862;39;113866;-74
2021/04/20 04:32:24;;;;;;;;;19.00;15.67;;;;;;;;3568784;39;112021;-74
2021/04/20 04:34:51;;;;;;;;;19.67;15.00;;;;;;;;3569992;39;113321;-73
2021/04/20 04:37:17;;;;;;;;;20.33;18.00;;;;;;;;3568480;39;113965;-76
2021/04/20 04:39:43;;;;;;;;;15.33;14.33;;;;;;;;3569642;39;111801;-74
2021/04/20 04:42:09;;;;;;;;;20.00;17.33;;;;;;;;3569593;39;113568;-75
2021/04/20 04:44:35;;;;;;;;;19.00;16.00;;;;;;;;3568507;39;113798;-75
2021/04/20 04:47:02;;;;;;;;;19.67;16.00;;;;;;;;3569823;39;111866;-75
2021/04/20 04:49:30;;;;;;;;;15.33;14.33;;;;;;;;3570957;39;113645;-76
2021/04/20 04:51:57;;;;;;;;;15.00;15.00;;;;;;;;3568552;39;111801;-76
2021/04/20 04:54:23;;;;;;;;;17.33;15.00;;;;;;;;3565211;39;112335;-76
2021/04/20 04:56:50;;;;;;;;;17.33;14.00;;;;;;;;3568290;39;114120;-76
2021/04/20 04:59:18;;;;;;;;;18.00;15.00;;;;;;;;3569654;39;111752;-76
2021/04/20 05:01:45;;;;;;;;;23.00;18.67;;;;;;;;3569211;39;113403;-76
2021/04/20 05:04:12;;;;;;;;;21.00;17.33;;;;;;;;3569832;39;113866;-77
2021/04/20 05:06:40;;;;;;;;;18.67;18.33;;;;;;;;3565822;39;112304;-77
2021/04/20 05:09:09;;;;;;;;;21.33;18.33;;;;;;;;3568249;39;113828;-77
2021/04/20 05:11:36;;;;;;;;;15.67;15.67;;;;;;;;3571222;39;114066;-77
2021/04/20 05:14:02;;;;;;;;;19.00;16.00;;;;;;;;3569350;39;113435;-80
2021/04/20 05:16:28;;;;;;;;;18.00;18.00;;;;;;;;3565955;39;113927;-77
2021/04/20 05:18:55;;;;;;;;;18.00;16.67;;;;;;;;3570156;39;111820;-73
2021/04/20 05:21:22;;;;;;;;;19.00;15.67;;;;;;;;3568667;39;113543;-73
2021/04/20 05:23:52;;;;;;;;;20.00;18.33;;;;;;;;3569298;39;114213;-74
2021/04/20 05:26:18;;;;;;;;;19.33;15.00;;;;;;;;3568702;39;113900;-73
2021/04/20 05:28:44;;;;;;;;;22.67;20.00;;;;;;;;3564293;39;113394;-73
2021/04/20 05:31:10;;;;;;;;;20.00;18.00;;;;;;;;3567209;39;114067;-76
2021/04/20 05:33:36;;;;;;;;;14.33;10.33;;;;;;;;3571170;39;111802;-73
2021/04/20 05:36:06;;;;;;;;;23.67;22.33;;;;;;;;3568619;39;113719;-75
2021/04/20 05:38:32;;;;;;;;;19.00;17.33;;;;;;;;3566078;39;112271;-71
2021/04/20 05:41:00;;;;;;;;;21.33;16.00;;;;;;;;3567992;39;113154;-75
2021/04/20 05:43:26;;;;;;;;;19.00;18.00;;;;;;;;3569768;39;113946;-76
2021/04/20 05:45:52;;;;;;;;;19.33;16.33;;;;;;;;3568064;39;112312;-74
2021/04/20 05:48:19;;;;;;;;;22.67;19.67;;;;;;;;3569426;39;113377;-75
2021/04/20 05:50:50;;;;;;;;;21.33;15.33;;;;;;;;3568224;39;114618;-75
2021/04/20 05:53:16;;;;;;;;;19.00;18.00;;;;;;;;3569421;39;112683;-73
2021/04/20 05:55:42;;;;;;;;;24.67;21.67;;;;;;;;3565984;39;112655;-74
2021/04/20 05:58:10;;;;;;;;;20.00;19.00;;;;;;;;3568380;39;112008;-74
2021/04/20 06:00:36;;;;;;;;;19.67;19.67;;;;;;;;3569063;39;113262;-76
2021/04/20 06:03:02;;;;;;;;;18.33;14.67;;;;;;;;3567826;39;114175;-76
2021/04/20 06:05:29;;;;;;;;;20.00;19.00;;;;;;;;3569841;39;111790;-76
2021/04/20 06:07:56;;;;;;;;;22.33;19.67;;;;;;;;3567904;39;113377;-77
2021/04/20 06:10:22;;;;;;;;;23.67;22.67;;;;;;;;3569532;39;114119;-79
2021/04/20 06:12:49;;;;;;;;;20.33;20.33;;;;;;;;3568208;39;112058;-77
2021/04/20 06:15:18;;;;;;;;;20.67;20.67;;;;;;;;3569145;39;113515;-74
2021/04/20 06:17:45;;;;;;;;;26.00;25.00;;;;;;;;3570573;39;113789;-73
2021/04/20 06:20:12;;;;;;;;;24.00;21.67;;;;;;;;3567748;39;113346;-72
2021/04/20 06:22:39;;;;;;;;;23.33;22.67;;;;;;;;3568120;39;113867;-75
2021/04/20 06:25:09;;;;;;;;;23.00;20.33;;;;;;;;3568744;39;111860;-73
2021/04/20 06:27:35;;;;;;;;;30.00;21.00;;;;;;;;3569235;39;113509;-71
2021/04/20 06:30:01;;;;;;;;;20.00;19.00;;;;;;;;3570003;39;114015;-69
2021/04/20 06:32:28;;;;;;;;;28.00;24.67;;;;;;;;3569147;39;112213;-68
2021/04/20 06:34:55;;;;;;;;;29.33;24.00;;;;;;;;3571032;39;113310;-70
2021/04/20 06:37:21;;;;;;;;;24.33;22.67;;;;;;;;3571320;39;113927;-72
2021/04/20 06:39:48;;;;;;;;;19.00;16.33;;;;;;;;3570543;39;113357;-72
2021/04/20 06:42:18;;;;;;;;;24.67;23.67;;;;;;;;3568354;39;114335;-72
2021/04/20 06:44:48;;;;;;;;;27.33;24.67;;;;;;;;3570474;39;112039;-71
2021/04/20 06:47:15;;;;;;;;;28.67;25.00;;;;;;;;3569519;39;113978;-71
2021/04/20 06:49:45;;;;;;;;;25.33;24.00;;;;;;;;3569025;39;113905;-73
2021/04/20 06:52:15;;;;;;;;;33.00;27.00;;;;;;;;3568968;39;112216;-72
2021/04/20 06:54:46;;;;;;;;;30.00;26.33;;;;;;;;3569387;39;113447;-69
2021/04/20 06:57:13;;;;;;;;;27.33;27.33;;;;;;;;3568592;39;114169;-69
2021/04/20 06:59:45;;;;;;;;;32.33;25.00;;;;;;;;3570266;39;112123;-74
2021/04/20 07:02:16;;;;;;;;;37.67;32.00;;;;;;;;3568596;39;113654;-71
2021/04/20 07:04:44;;;;;;;;;56.00;47.00;;;;;;;;3567449;39;111873;-73
2021/04/20 07:07:20;;;;;;;;;34.33;28.00;;;;;;;;3569104;39;113636;-75
2021/04/20 07:09:48;;;;;;;;;26.33;25.00;;;;;;;;3568103;39;112974;-74
2021/04/20 07:12:16;;;;;;;;;31.67;27.00;;;;;;;;3569580;39;111815;-75
2021/04/20 07:14:45;;;;;;;;;16.67;15.33;;;;;;;;3569243;39;113628;-73
2021/04/20 07:17:25;;;;;;;;;30.00;29.00;;;;;;;;3568738;39;113981;-73
2021/04/20 07:20:02;;;;;;;;;26.33;25.67;;;;;;;;3567932;39;112138;-72
2021/04/20 07:22:42;;;;;;;;;25.67;22.00;;;;;;;;3570863;39;113288;-73
2021/04/20 07:25:12;;;;;;;;;33.67;27.00;;;;;;;;3563859;39;113364;-73
2021/04/20 07:27:50;;;;;;;;;28.00;25.00;;;;;;;;3568889;39;113514;-74
2021/04/20 07:30:19;;;;;;;;;23.67;23.67;;;;;;;;3568136;39;113937;-75
2021/04/20 07:32:51;;;;;;;;;28.33;25.00;;;;;;;;3567869;39;112298;-74
2021/04/20 07:35:21;;;;;;;;;29.33;28.00;;;;;;;;3570101;39;113309;-74
2021/04/20 07:37:50;;;;;;;;;27.00;23.67;;;;;;;;3568233;39;114138;-74
2021/04/20 07:40:34;;;;;;;;;33.33;25.67;;;;;;;;3568041;39;111920;-73
2021/04/20 07:43:11;;;;;;;;;34.00;30.33;;;;;;;;3568399;39;113089;-74
2021/04/20 07:45:39;;;;;;;;;27.33;26.00;;;;;;;;3571400;39;113932;-74
2021/04/20 07:48:10;;;;;;;;;28.00;27.00;;;;;;;;3568590;39;113623;-73
2021/04/20 07:50:43;;;;;;;;;32.33;27.67;;;;;;;;3564641;39;113958;-68
2021/04/20 07:53:13;;;;;;;;;32.00;28.67;;;;;;;;3568756;39;112169;-72
2021/04/20 07:55:46;;;;;;;;;32.00;26.67;;;;;;;;3568954;39;113169;-72
2021/04/20 07:58:13;;;;;;;;;35.00;28.33;;;;;;;;3569449;39;113916;-71
2021/04/20 08:00:42;;;;;;;;;29.33;29.33;;;;;;;;3567973;39;113230;-71
2021/04/20 08:03:16;;;;;;;;;29.50;27.25;;;;;;;;3567484;39;113722;-72
2021/04/20 08:05:47;;;;;;;;;28.50;25.25;;;;;;;;3569285;39;114235;-72
2021/04/20 08:08:15;;;;;;;;;27.75;24.25;;;;;;;;3572182;39;112142;-73
2021/04/20 08:10:43;;;;;;;;;24.25;23.25;;;;;;;;3568180;39;114450;-72
2021/04/20 08:13:14;;;;;;;;;30.75;25.50;;;;;;;;3569680;39;111802;-73
2021/04/20 08:15:41;;;;;;;;;24.50;19.25;;;;;;;;3569124;39;113279;-71
2021/04/20 08:18:11;;;;;;;;;27.25;24.75;;;;;;;;3567559;39;114022;-72
2021/04/20 08:20:37;;;;;;;;;21.50;17.75;;;;;;;;3569696;39;112962;-72
2021/04/20 08:23:06;;;;;;;;;20.75;20.75;;;;;;;;3569159;39;113786;-72
2021/04/20 08:25:34;;;;;;;;;21.00;21.00;;;;;;;;3568414;39;113955;-73
2021/04/20 08:28:02;;;;;;;;;22.25;20.00;;;;;;;;3569229;39;111741;-70
2021/04/20 08:30:33;;;;;;;;;19.75;19.25;;;;;;;;3570296;39;113230;-69
2021/04/20 08:33:00;;;;;;;;;20.00;18.50;;;;;;;;3569301;39;111644;-69
2021/04/20 08:35:28;;;;;;;;;18.00;17.00;;;;;;;;3569576;39;113389;-68
2021/04/20 08:38:02;;;;;;;;;17.75;17.50;;;;;;;;3566188;39;114028;-70
2021/04/20 08:40:37;;;;;;;;;15.75;15.75;;;;;;;;3568258;39;111871;-72
2021/04/20 08:43:06;;;;;;;;;16.75;16.75;;;;;;;;3568574;39;113790;-70
2021/04/20 08:45:40;;;;;;;;;17.25;16.25;;;;;;;;3568043;39;113884;-72
2021/04/20 08:48:10;;;;;;;;;19.00;17.25;;;;;;;;3568332;39;113416;-72
2021/04/20 08:50:40;;;;;;;;;16.25;14.75;;;;;;;;3570657;39;114066;-71
2021/04/20 08:53:13;;;;;;;;;15.25;15.00;;;;;;;;3568359;39;112289;-71
2021/04/20 08:55:45;;;;;;;;;15.75;15.00;;;;;;;;3568908;39;113587;-70
2021/04/20 08:58:22;;;;;;;;;13.25;13.25;;;;;;;;3567857;39;113796;-71
2021/04/20 09:00:57;;;;;;;;;17.00;17.00;;;;;;;;3569187;39;112070;-71
2021/04/20 09:03:26;;;;;;;;;13.25;12.25;;;;;;;;3567832;39;113390;-72
2021/04/20 09:05:55;;;;;;;;;16.50;15.00;;;;;;;;3566940;39;113791;-70
2021/04/20 09:08:29;;;;;;;;;15.00;13.25;;;;;;;;3569703;39;114028;-72
2021/04/20 09:11:02;;;;;;;;;14.50;14.25;;;;;;;;3567442;39;113635;-71
2021/04/20 09:13:31;;;;;;;;;15.25;15.25;;;;;;;;3571666;39;113998;-70
2021/04/20 09:16:00;;;;;;;;;16.00;16.00;;;;;;;;3567583;39;113565;-71
2021/04/20 09:18:38;;;;;;;;;17.50;17.25;;;;;;;;3568871;39;114076;-72
2021/04/20 09:21:07;;;;;;;;;13.75;13.75;;;;;;;;3567936;39;112136;-72
2021/04/20 09:23:47;;;;;;;;;17.67;14.33;;;;;;;;3568894;39;113515;-72
2021/04/20 09:26:25;;;;;;;;;16.00;14.67;;;;;;;;3564955;39;113061;-70
2021/04/20 09:28:58;;;;;;;;;19.00;16.75;;;;;;;;3567215;39;113558;-71
2021/04/20 09:31:27;;;;;;;;;15.75;12.25;;;;;;;;3567911;39;113384;-71
2021/04/20 09:33:54;;;;;;;;;19.25;16.75;;;;;;;;3566793;39;113736;-71
2021/04/20 09:36:21;;;;;;;;;47.00;37.50;;;;;;;;3570297;39;111783;-72
2021/04/20 09:38:49;;;;;;;;;14.75;14.75;;;;;;;;3568285;39;113954;-72
2021/04/20 09:41:17;;;;;;;;;46.00;34.25;;;;;;;;3568791;39;112259;-72
2021/04/20 09:43:50;;;;;;;;;29.75;27.50;;;;;;;;3568089;39;113301;-72
2021/04/20 09:46:18;;;;;;;;;33.00;26.50;;;;;;;;3568465;39;114337;-72
2021/04/20 09:48:51;;;;;;;;;15.00;14.00;;;;;;;;3568072;39;111922;-72
2021/04/20 09:51:19;;;;;;;;;19.33;16.00;;;;;;;;3569336;39;113383;-70
2021/04/20 09:53:53;;;;;;;;;32.00;27.00;;;;;;;;3567457;39;114059;-73
2021/04/20 09:56:22;;;;;;;;;16.00;16.00;;;;;;;;3567263;39;111870;-72
2021/04/20 09:58:49;;;;;;;;;16.00;15.00;;;;;;;;3571076;39;113320;-72
2021/04/20 10:01:33;;;;;;;;;19.00;17.00;;;;;;;;3568393;39;112519;-71
2021/04/20 10:04:06;;;;;;;;;14.75;14.75;;;;;;;;3568953;39;113360;-73
2021/04/20 10:06:48;;;;;;;;;18.00;15.75;;;;;;;;3569385;39;113853;-72
2021/04/20 10:09:23;;;;;;;;;20.50;17.75;;;;;;;;3547148;39;112161;-74
2021/04/20 10:11:54;;;;;;;;;14.25;14.25;;;;;;;;3568355;39;113417;-73
2021/04/20 10:14:29;;;;;;;;;18.00;15.75;;;;;;;;3568149;39;113902;-72
2021/04/20 10:17:05;;;;;;;;;16.50;15.00;;;;;;;;3568320;39;112638;-72
2021/04/20 10:19:37;;;;;;;;;15.50;15.00;;;;;;;;3569697;39;114444;-73
2021/04/20 10:22:12;;;;;;;;;18.25;15.75;;;;;;;;3571142;39;114114;-72
2021/04/20 10:24:40;;;;;;;;;17.00;14.00;;;;;;;;3569539;39;113391;-72
2021/04/20 10:27:08;;;;;;;;;14.50;13.50;;;;;;;;3568460;39;114112;-73
2021/04/20 10:29:39;;;;;;;;;15.75;15.00;;;;;;;;3569435;39;112905;-73
2021/04/20 10:32:07;;;;;;;;;16.25;15.25;;;;;;;;3569116;39;114430;-73
2021/04/20 10:34:35;;;;;;;;;15.00;15.00;;;;;;;;3568838;39;114518;-72
2021/04/20 10:37:01;;;;;;;;;18.50;18.50;;;;;;;;3568264;39;111946;-71
2021/04/20 10:39:29;;;;;;;;;19.00;17.25;;;;;;;;3569974;39;113609;-70
2021/04/20 10:41:56;;;;;;;;;17.25;17.25;;;;;;;;3567878;39;114295;-71
2021/04/20 10:44:24;;;;;;;;;17.00;16.00;;;;;;;;3570975;39;112146;-71
2021/04/20 10:46:57;;;;;;;;;15.25;15.00;;;;;;;;3568502;39;114189;-72
2021/04/20 10:49:24;;;;;;;;;18.00;13.00;;;;;;;;3567565;39;112645;-71
2021/04/20 10:51:54;;;;;;;;;17.00;16.00;;;;;;;;3567161;39;113478;-73
2021/04/20 10:54:21;;;;;;;;;17.00;15.00;;;;;;;;3568176;39;113901;-72
2021/04/20 10:56:49;;;;;;;;;23.00;18.25;;;;;;;;3569986;39;112483;-72
2021/04/20 10:59:24;;;;;;;;;11.50;10.50;;;;;;;;3567167;39;113547;-74
2021/04/20 11:01:50;;;;;;;;;15.00;14.75;;;;;;;;3566096;39;113952;-75
2021/04/20 11:04:20;;;;;;;;;14.75;11.00;;;;;;;;3572958;39;112250;-72
2021/04/20 11:07:05;;;;;;;;;15.25;13.50;;;;;;;;3568801;39;114068;-72
2021/04/20 11:09:31;;;;;;;;;13.25;12.00;;;;;;;;3568532;39;111950;-72
2021/04/20 11:11:57;;;;;;;;;13.00;12.00;;;;;;;;3568990;39;113585;-75
2021/04/20 11:14:36;;;;;;;;;12.75;12.75;;;;;;;;3567568;39;113903;-73
2021/04/20 11:17:03;;;;;;;;;10.00;10.00;;;;;;;;3568205;39;111867;-74
2021/04/20 11:19:31;;;;;;;;;12.75;12.50;;;;;;;;3568184;39;113562;-73
2021/04/20 11:22:01;;;;;;;;;14.25;13.00;;;;;;;;3567860;39;114203;-72
2021/04/20 11:24:28;;;;;;;;;11.25;11.25;;;;;;;;3567961;39;112457;-72
2021/04/20 11:26:58;;;;;;;;;12.00;10.75;;;;;;;;3571203;39;113292;-71
2021/04/20 11:29:27;;;;;;;;;15.75;15.00;;;;;;;;3570855;39;112123;-77
2021/04/20 11:31:54;;;;;;;;;22.50;19.75;;;;;;;;3575188;39;114557;-77
2021/04/20 11:34:21;;;;;;;;;13.50;13.25;;;;;;;;3571614;39;112986;-77
2021/04/20 11:36:51;;;;;;;;;16.00;16.00;;;;;;;;3568054;39;111986;-77
2021/04/20 11:39:19;;;;;;;;;15.50;14.50;;;;;;;;3567664;39;114522;-77
2021/04/20 11:41:48;;;;;;;;;23.25;19.25;;;;;;;;3567481;39;113859;-77
2021/04/20 11:44:15;;;;;;;;;16.00;16.00;;;;;;;;3567573;39;113358;-78
2021/04/20 11:46:46;;;;;;;;;15.75;14.75;;;;;;;;3568329;39;113456;-77
2021/04/20 11:49:15;;;;;;;;;15.75;15.75;;;;;;;;3569686;39;113920;-78
2021/04/20 11:51:42;;;;;;;;;11.50;9.00;;;;;;;;3570893;39;113414;-77
2021/04/20 11:54:10;;;;;;;;;11.75;11.75;;;;;;;;3568020;39;114675;-77
2021/04/20 11:56:37;;;;;;;;;13.00;10.75;;;;;;;;3569035;39;111883;-77
2021/04/20 11:59:07;;;;;;;;;13.00;13.00;;;;;;;;3568823;39;113219;-76
2021/04/20 12:01:34;;;;;;;;;19.50;18.75;;;;;;;;3568372;39;114172;-76
2021/04/20 12:04:01;;;;;;;;;11.75;10.50;;;;;;;;3567581;39;111809;-76
2021/04/20 12:06:37;;;;;;;;;14.25;14.25;;;;;;;;3568872;39;113626;-76
2021/04/20 12:09:03;;;;;;;;;12.00;12.00;;;;;;;;3566115;39;113907;-76
2021/04/20 12:11:30;;;;;;;;;12.75;12.25;;;;;;;;3571660;39;112334;-76
2021/04/20 12:13:57;;;;;;;;;16.50;16.00;;;;;;;;3567039;39;114505;-76
2021/04/20 12:16:24;;;;;;;;;19.25;16.00;;;;;;;;3568348;39;112282;-77
2021/04/20 12:18:50;;;;;;;;;13.75;12.00;;;;;;;;3567029;39;113447;-75
2021/04/20 12:21:21;;;;;;;;;13.25;12.25;;;;;;;;3566085;39;114231;-76
2021/04/20 12:23:49;;;;;;;;;19.75;17.25;;;;;;;;3567757;39;112755;-78
2021/04/20 12:26:15;;;;;;;;;13.75;13.75;;;;;;;;3568299;39;114083;-77
2021/04/20 12:28:45;;;;;;;;;16.50;12.75;;;;;;;;3568762;39;114245;-77
2021/04/20 12:31:11;;;;;;;;;14.75;11.50;;;;;;;;3568523;39;112298;-76
2021/04/20 12:33:38;;;;;;;;;18.50;17.25;;;;;;;;3571501;39;113249;-76
2021/04/20 12:36:06;;;;;;;;;20.75;19.50;;;;;;;;3566965;39;111874;-76
2021/04/20 12:38:33;;;;;;;;;14.25;12.00;;;;;;;;3568158;39;113656;-76
2021/04/20 12:41:00;;;;;;;;;9.25;9.25;;;;;;;;3564911;39;113030;-77
2021/04/20 12:43:27;;;;;;;;;16.50;12.75;;;;;;;;3567927;39;111972;-75
2021/04/20 12:46:03;;;;;;;;;18.50;17.25;;;;;;;;3568351;39;113977;-76
2021/04/20 12:48:30;;;;;;;;;10.50;10.50;;;;;;;;3567442;39;113818;-76
2021/04/20 12:50:57;;;;;;;;;13.25;11.75;;;;;;;;3566698;39;111930;-77
2021/04/20 12:53:24;;;;;;;;;19.50;18.25;;;;;;;;3568255;39;112900;-76
2021/04/20 12:55:51;;;;;;;;;14.75;13.50;;;;;;;;3568486;39;111878;-76
2021/04/20 12:58:18;;;;;;;;;6.00;6.00;;;;;;;;3565787;39;113553;-75
2021/04/20 13:00:45;;;;;;;;;10.00;9.00;;;;;;;;3565820;39;114212;-76
2021/04/20 13:03:13;;;;;;;;;10.00;9.00;;;;;;;;3567533;39;112269;-76
2021/04/20 13:05:40;;;;;;;;;5.50;5.00;;;;;;;;3567529;39;113832;-74
2021/04/20 13:08:08;;;;;;;;;9.00;7.50;;;;;;;;3568608;39;114082;-81
2021/04/20 13:10:34;;;;;;;;;6.00;4.50;;;;;;;;3569101;39;112569;-85
2021/04/20 13:13:02;;;;;;;;;7.00;7.00;;;;;;;;3569180;39;113323;-79
2021/04/20 13:15:29;;;;;;;;;6.25;6.25;;;;;;;;3571219;39;113820;-82
2021/04/20 13:17:57;;;;;;;;;9.00;8.00;;;;;;;;3569762;39;113708;-78
2021/04/20 13:20:26;;;;;;;;;7.25;7.25;;;;;;;;3568086;39;114465;-75
2021/04/20 13:22:52;;;;;;;;;8.75;5.00;;;;;;;;3567230;39;111997;-80
2021/04/20 13:25:19;;;;;;;;;7.00;5.50;;;;;;;;3567858;39;113441;-77
2021/04/20 13:27:48;;;;;;;;;5.25;4.75;;;;;;;;3568761;39;114341;-77
2021/04/20 13:30:18;;;;;;;;;5.00;5.00;;;;;;;;3568001;39;112678;-77
2021/04/20 13:32:47;;;;;;;;;6.25;4.25;;;;;;;;3569133;39;113028;-80
2021/04/20 13:35:16;;;;;;;;;5.50;5.00;;;;;;;;3567192;39;114013;-76
2021/04/20 13:37:44;;;;;;;;;7.75;6.00;;;;;;;;3572033;39;112349;-77
2021/04/20 13:40:11;;;;;;;;;5.75;5.75;;;;;;;;3567652;39;113879;-79
2021/04/20 13:42:39;;;;;;;;;6.00;5.25;;;;;;;;3568824;39;111878;-76
2021/04/20 13:45:07;;;;;;;;;6.00;5.00;;;;;;;;3568225;39;113669;-77
2021/04/20 13:47:35;;;;;;;;;3.50;3.50;;;;;;;;3567819;39;113759;-76
2021/04/20 13:50:01;;;;;;;;;5.50;4.00;;;;;;;;3569277;39;111811;-76
2021/04/20 13:52:29;;;;;;;;;4.00;4.00;;;;;;;;3566875;39;113391;-76
2021/04/20 13:54:58;;;;;;;;;4.00;4.00;;;;;;;;3566324;39;114002;-77
2021/04/20 13:57:27;;;;;;;;;6.00;4.00;;;;;;;;3566975;39;112201;-77
2021/04/20 13:59:53;;;;;;;;;4.00;4.00;;;;;;;;3569540;39;113597;-76
2021/04/20 14:02:21;;;;;;;;;4.00;4.00;;;;;;;;3567194;39;112806;-75
2021/04/20 14:04:49;;;;;;;;;5.50;4.25;;;;;;;;3569056;39;113275;-76
2021/04/20 14:07:22;;;;;;;;;3.00;3.00;;;;;;;;3563866;39;112841;-77
2021/04/20 14:09:51;;;;;;;;;4.00;4.00;;;;;;;;3567277;39;113598;-77
2021/04/20 14:12:22;;;;;;;;;4.25;4.25;;;;;;;;3569347;39;113306;-76
2021/04/20 14:14:53;;;;;;;;;2.00;2.00;;;;;;;;3566926;39;114472;-77